Time;durP1;ratioP1;P1;durP2;ratioP2;P2;SDS_P1;SDS_P2;PMS_P1;PMS_P2;Temp;Humidity;BMP_temperature;BMP_pressure;BME280_temperature;BME280_humidity;BME280_pressure;Samples;Min_cycle;Max_cycle;Signal;HPM_P1;HPM_P2
2023/09/03 00:02:23;;;;;;;10.15;7.45;;;;;;;16.70;98.01;93619.50;5027827;28;20041;-76
2023/09/03 00:04:50;;;;;;;8.60;7.00;;;;;;;16.65;98.16;93610.84;5010546;28;20107;-76
2023/09/03 00:07:18;;;;;;;10.13;7.95;;;;;;;16.59;97.93;93607.41;5009638;28;20547;-76
2023/09/03 00:09:45;;;;;;;10.98;7.85;;;;;;;16.62;98.65;93616.50;5006386;28;20045;-76
2023/09/03 00:12:11;;;;;;;9.57;6.85;;;;;;;16.59;98.07;93620.38;5007845;28;20049;-76
2023/09/03 00:14:38;;;;;;;9.93;7.93;;;;;;;16.55;98.58;93620.06;5010491;28;20050;-76
2023/09/03 00:17:05;;;;;;;10.55;7.53;;;;;;;16.48;98.77;93611.63;5009177;28;20049;-76
2023/09/03 00:19:32;;;;;;;11.70;8.30;;;;;;;16.47;98.65;93615.25;5006703;28;20060;-76
2023/09/03 00:21:58;;;;;;;14.05;8.10;;;;;;;16.48;99.23;93618.63;5011834;28;20050;-76
2023/09/03 00:24:27;;;;;;;18.50;9.63;;;;;;;16.42;98.99;93609.97;5010000;28;20050;-76
2023/09/03 00:26:57;;;;;;;14.52;8.65;;;;;;;16.48;98.95;93622.00;5009276;28;20050;-76
2023/09/03 00:29:24;;;;;;;10.18;7.10;;;;;;;16.45;99.65;93617.31;5011415;28;20050;-76
2023/09/03 00:31:50;;;;;;;10.77;7.95;;;;;;;16.39;100.00;93613.84;5009551;28;20054;-76
2023/09/03 00:34:17;;;;;;;13.05;8.18;;;;;;;16.34;100.00;93615.56;5013584;28;20053;-76
2023/09/03 00:36:45;;;;;;;10.48;7.70;;;;;;;16.16;100.00;93587.03;5020725;28;20053;-76
2023/09/03 00:39:12;;;;;;;10.73;7.63;;;;;;;16.31;100.00;93611.66;5027954;28;20057;-76
2023/09/03 00:41:40;;;;;;;10.07;7.22;;;;;;;16.30;100.00;93612.66;5012103;28;20049;-76
2023/09/03 00:44:07;;;;;;;11.38;7.88;;;;;;;16.29;100.00;93605.88;5009324;28;20049;-76
2023/09/03 00:46:34;;;;;;;12.73;7.47;;;;;;;16.22;100.00;93618.22;5009093;28;20049;-76
2023/09/03 00:49:00;;;;;;;10.55;7.93;;;;;;;16.21;100.00;93614.06;5009149;28;20057;-76
2023/09/03 00:51:28;;;;;;;9.50;6.88;;;;;;;16.02;100.00;93589.16;5009485;28;20045;-77
2023/09/03 00:53:57;;;;;;;12.43;7.90;;;;;;;16.02;100.00;93596.16;5008952;28;20054;-76
2023/09/03 00:56:24;;;;;;;9.90;7.47;;;;;;;16.06;100.00;93591.28;5013147;28;20093;-76
2023/09/03 00:58:54;;;;;;;11.18;7.75;;;;;;;16.08;100.00;93608.16;5009233;28;20495;-76
2023/09/03 01:01:22;;;;;;;10.60;7.97;;;;;;;16.03;100.00;93605.50;5009192;28;20045;-76
2023/09/03 01:03:49;;;;;;;13.80;8.63;;;;;;;16.11;100.00;93596.56;5008975;28;20054;-76
2023/09/03 01:06:16;;;;;;;13.30;7.90;;;;;;;15.76;100.00;93572.38;5010919;28;20050;-76
2023/09/03 01:08:43;;;;;;;11.20;8.38;;;;;;;16.04;100.00;93586.31;5013717;28;20052;-76
2023/09/03 01:11:25;;;;;;;10.85;8.20;;;;;;;15.97;100.00;93601.25;5008960;28;20160;-76
2023/09/03 01:14:01;;;;;;;10.80;7.70;;;;;;;15.91;100.00;93597.75;5023854;28;20046;-76
2023/09/03 01:16:34;;;;;;;13.00;8.35;;;;;;;15.90;100.00;93602.16;5013237;28;20424;-75
2023/09/03 01:19:07;;;;;;;14.27;8.15;;;;;;;15.90;100.00;93598.75;5011226;28;20133;-77
2023/09/03 01:21:49;;;;;;;12.68;8.45;;;;;;;15.91;100.00;93602.91;5008682;28;20046;-75
2023/09/03 01:24:30;;;;;;;12.20;8.18;;;;;;;15.85;100.00;93607.25;5022760;28;20049;-74
2023/09/03 01:27:07;;;;;;;14.57;9.10;;;;;;;15.84;100.00;93607.47;5008369;28;20058;-74
2023/09/03 01:29:37;;;;;;;12.15;8.07;;;;;;;15.80;100.00;93609.75;5008408;28;20046;-74
2023/09/03 01:32:06;;;;;;;12.38;8.23;;;;;;;15.85;100.00;93606.44;5009395;28;20147;-74
2023/09/03 01:34:34;;;;;;;11.38;7.63;;;;;;;15.80;100.00;93607.16;5011842;28;20065;-74
2023/09/03 01:37:02;;;;;;;12.40;8.93;;;;;;;15.79;100.00;93610.75;5010180;28;20137;-74
2023/09/03 01:39:29;;;;;;;12.90;8.80;;;;;;;15.81;100.00;93606.13;5008623;28;20045;-74
2023/09/03 01:41:55;;;;;;;12.07;8.45;;;;;;;15.78;100.00;93604.00;5008111;28;20098;-74
2023/09/03 01:44:22;;;;;;;11.55;8.38;;;;;;;15.71;100.00;93608.53;5009253;28;20396;-74
2023/09/03 01:46:52;;;;;;;11.30;8.07;;;;;;;15.38;100.00;93582.31;5010225;28;20151;-74
2023/09/03 01:49:31;;;;;;;12.07;8.32;;;;;;;15.62;100.00;93611.50;5015548;28;20045;-74
2023/09/03 01:52:10;;;;;;;11.55;7.60;;;;;;;15.56;100.00;93606.44;5015503;28;20163;-74
2023/09/03 01:54:41;;;;;;;11.95;9.00;;;;;;;15.53;100.00;93614.66;5018917;28;20049;-74
2023/09/03 01:57:13;;;;;;;12.98;9.25;;;;;;;15.42;100.00;93614.47;5014879;28;20092;-74
2023/09/03 01:59:43;;;;;;;11.18;8.27;;;;;;;15.44;100.00;93614.25;5010465;28;20733;-74
2023/09/03 02:02:12;;;;;;;10.95;8.38;;;;;;;15.34;100.00;93613.03;5008404;28;20064;-74
2023/09/03 02:04:39;;;;;;;11.75;8.30;;;;;;;15.33;100.00;93605.50;5012046;28;20463;-74
2023/09/03 02:07:06;;;;;;;10.15;7.95;;;;;;;15.31;100.00;93607.53;5013749;28;20108;-74
2023/09/03 02:09:33;;;;;;;13.18;8.65;;;;;;;15.28;100.00;93608.00;5011068;28;20042;-74
2023/09/03 02:12:00;;;;;;;11.73;8.68;;;;;;;15.23;100.00;93604.28;5009422;28;20092;-74
2023/09/03 02:14:27;;;;;;;11.27;9.10;;;;;;;15.28;100.00;93608.75;5007945;28;20073;-74
2023/09/03 02:16:54;;;;;;;12.43;9.05;;;;;;;14.61;100.00;93527.19;5012335;28;20575;-74
2023/09/03 02:19:23;;;;;;;10.98;7.80;;;;;;;15.14;100.00;93600.47;5012083;28;20104;-74
2023/09/03 02:21:50;;;;;;;10.80;8.63;;;;;;;15.15;100.00;93604.66;5009652;28;20058;-74
2023/09/03 02:24:17;;;;;;;13.73;8.82;;;;;;;15.12;100.00;93610.25;5008120;28;20334;-74
2023/09/03 02:26:45;;;;;;;11.45;8.50;;;;;;;14.86;100.00;93572.75;5009544;28;20053;-74
2023/09/03 02:29:12;;;;;;;12.35;8.63;;;;;;;15.11;100.00;93603.53;5006908;28;20050;-74
2023/09/03 02:31:38;;;;;;;12.05;8.68;;;;;;;15.08;100.00;93607.34;5008153;28;20116;-74
2023/09/03 02:34:07;;;;;;;11.27;9.30;;;;;;;15.10;100.00;93607.91;5011345;28;20400;-74
2023/09/03 02:36:35;;;;;;;12.90;8.23;;;;;;;15.13;100.00;93598.91;5007485;28;20129;-74
2023/09/03 02:39:03;;;;;;;11.07;8.63;;;;;;;14.90;100.00;93558.34;5008095;28;20049;-74
2023/09/03 02:41:30;;;;;;;10.70;8.35;;;;;;;15.04;100.00;93590.69;5011047;28;20508;-74
2023/09/03 02:43:57;;;;;;;11.88;8.45;;;;;;;15.17;100.00;93606.97;5007690;28;20449;-74
2023/09/03 02:46:24;;;;;;;12.27;9.05;;;;;;;15.14;100.00;93608.22;5007389;28;20068;-74
2023/09/03 02:48:51;;;;;;;12.32;8.63;;;;;;;15.10;100.00;93613.06;5014536;28;20527;-74
2023/09/03 02:51:18;;;;;;;11.55;8.32;;;;;;;15.10;100.00;93609.72;5007355;28;20096;-74
2023/09/03 02:53:47;;;;;;;11.43;9.35;;;;;;;15.07;100.00;93616.13;5012801;28;20061;-74
2023/09/03 02:56:14;;;;;;;11.60;8.85;;;;;;;15.03;100.00;93616.78;5017187;28;20050;-74
2023/09/03 02:58:41;;;;;;;10.25;8.18;;;;;;;15.04;100.00;93615.81;5007619;28;20069;-74
2023/09/03 03:01:08;;;;;;;10.98;8.13;;;;;;;15.02;100.00;93617.81;5007479;28;20483;-74
2023/09/03 03:03:35;;;;;;;11.57;8.98;;;;;;;15.00;100.00;93606.91;5007397;28;20042;-74
2023/09/03 03:06:03;;;;;;;11.27;8.98;;;;;;;14.94;100.00;93608.59;5011011;28;20053;-74
2023/09/03 03:08:29;;;;;;;10.73;8.23;;;;;;;14.75;100.00;93585.47;5007616;28;20109;-74
2023/09/03 03:11:07;;;;;;;11.30;8.32;;;;;;;14.74;100.00;93570.13;5006892;28;20101;-74
2023/09/03 03:13:34;;;;;;;11.25;8.18;;;;;;;14.83;100.00;93597.25;5009353;28;20470;-74
2023/09/03 03:16:05;;;;;;;10.60;7.32;;;;;;;14.90;100.00;93605.69;5007434;28;20476;-74
2023/09/03 03:18:31;;;;;;;11.13;8.50;;;;;;;14.91;100.00;93598.72;5006922;28;20096;-74
2023/09/03 03:21:05;;;;;;;10.60;8.50;;;;;;;14.87;100.00;93598.38;5011330;28;20057;-74
2023/09/03 03:23:32;;;;;;;11.77;8.18;;;;;;;14.83;100.00;93600.63;5010432;28;20060;-74
2023/09/03 03:25:59;;;;;;;12.73;8.82;;;;;;;14.79;100.00;93598.72;5010769;28;20050;-74
2023/09/03 03:28:27;;;;;;;12.60;8.93;;;;;;;14.70;100.00;93595.66;5016865;28;20050;-74
2023/09/03 03:30:54;;;;;;;12.57;8.88;;;;;;;14.67;100.00;93596.09;5022645;28;20050;-74
2023/09/03 03:33:20;;;;;;;11.48;8.50;;;;;;;14.64;100.00;93602.53;5015780;28;20503;-74
2023/09/03 03:35:47;;;;;;;11.82;8.35;;;;;;;14.61;100.00;93600.38;5011094;28;20096;-74
2023/09/03 03:38:14;;;;;;;10.80;8.48;;;;;;;14.59;100.00;93605.00;5010416;28;20104;-74
2023/09/03 03:40:40;;;;;;;10.93;8.25;;;;;;;14.63;100.00;93606.09;5012403;28;20519;-74
2023/09/03 03:43:07;;;;;;;11.55;8.70;;;;;;;14.64;100.00;93612.88;5010473;28;20057;-75
2023/09/03 03:45:35;;;;;;;12.70;8.52;;;;;;;14.64;100.00;93610.28;5011022;28;20041;-74
2023/09/03 03:48:02;;;;;;;12.30;8.52;;;;;;;14.68;100.00;93613.19;5010595;28;20562;-81
2023/09/03 03:50:32;;;;;;;10.77;8.35;;;;;;;14.73;100.00;93612.53;5010162;28;20082;-80
2023/09/03 03:52:58;;;;;;;13.13;9.27;;;;;;;14.70;100.00;93606.00;5009735;28;20057;-80
2023/09/03 03:55:25;;;;;;;11.95;9.07;;;;;;;14.74;100.00;93609.72;5015093;28;20057;-80
2023/09/03 03:57:52;;;;;;;13.50;9.13;;;;;;;14.73;100.00;93605.56;5012578;28;20057;-80
2023/09/03 04:00:19;;;;;;;14.05;9.77;;;;;;;14.68;100.00;93595.09;5016643;28;20041;-81
2023/09/03 04:02:47;;;;;;;14.80;9.23;;;;;;;14.77;100.00;93611.88;5010843;28;20100;-79
2023/09/03 04:05:14;;;;;;;11.93;8.85;;;;;;;14.73;100.00;93597.81;5011941;28;20050;-79
2023/09/03 04:07:43;;;;;;;15.02;9.05;;;;;;;14.81;100.00;93612.19;5009979;28;20053;-79
2023/09/03 04:10:10;;;;;;;12.60;8.05;;;;;;;14.81;100.00;93617.38;5011914;28;20841;-79
2023/09/03 04:12:37;;;;;;;12.95;8.60;;;;;;;14.84;100.00;93614.34;5020356;28;20605;-79
2023/09/03 04:15:05;;;;;;;12.35;9.38;;;;;;;14.82;100.00;93614.56;5023115;28;20077;-79
2023/09/03 04:17:32;;;;;;;12.23;8.85;;;;;;;14.81;100.00;93612.19;5014870;28;20112;-80
2023/09/03 04:20:00;;;;;;;11.10;8.35;;;;;;;14.78;100.00;93615.25;5010623;28;20064;-80
2023/09/03 04:22:27;;;;;;;12.48;8.82;;;;;;;14.75;100.00;93620.84;5012842;28;20100;-80
2023/09/03 04:24:53;;;;;;;12.70;9.05;;;;;;;14.74;100.00;93609.72;5014323;28;20580;-80
2023/09/03 04:27:20;;;;;;;12.07;9.55;;;;;;;14.79;100.00;93614.22;5014723;28;20113;-80
2023/09/03 04:29:47;;;;;;;13.75;9.30;;;;;;;14.72;100.00;93598.78;5016378;28;20057;-79
2023/09/03 04:32:14;;;;;;;12.80;8.75;;;;;;;14.76;100.00;93609.53;5009732;28;20643;-79
2023/09/03 04:34:41;;;;;;;12.00;8.40;;;;;;;14.65;100.00;93601.50;5011990;28;20082;-79
2023/09/03 04:37:09;;;;;;;12.45;8.80;;;;;;;14.72;100.00;93611.72;5011552;28;20068;-77
2023/09/03 04:39:36;;;;;;;12.30;9.52;;;;;;;14.71;100.00;93604.97;5011037;28;20053;-78
2023/09/03 04:42:04;;;;;;;12.73;9.07;;;;;;;14.73;100.00;93607.34;5018207;28;20057;-77
2023/09/03 04:44:31;;;;;;;10.70;8.50;;;;;;;14.76;100.00;93602.53;5011427;28;20045;-78
2023/09/03 04:46:58;;;;;;;12.05;8.85;;;;;;;14.77;100.00;93608.50;5012545;28;20061;-78
2023/09/03 04:49:24;;;;;;;11.75;8.77;;;;;;;14.46;100.00;93550.91;5009908;28;20046;-78
2023/09/03 04:51:51;;;;;;;13.98;8.73;;;;;;;14.83;100.00;93605.03;5016912;28;20049;-78
2023/09/03 04:54:19;;;;;;;11.35;8.57;;;;;;;14.81;100.00;93600.06;5016395;28;20042;-78
2023/09/03 04:56:47;;;;;;;13.20;8.70;;;;;;;14.76;100.00;93581.84;5014393;28;20787;-78
2023/09/03 04:59:14;;;;;;;10.88;8.75;;;;;;;14.86;100.00;93598.59;5014932;28;20045;-80
2023/09/03 05:01:42;;;;;;;13.77;9.25;;;;;;;14.77;100.00;93578.25;5021911;28;20100;-80
2023/09/03 05:04:09;;;;;;;12.10;8.98;;;;;;;14.93;100.00;93594.88;5018474;28;20851;-80
2023/09/03 05:06:36;;;;;;;15.27;9.02;;;;;;;15.07;100.00;93573.94;5017128;28;20096;-79
2023/09/03 05:09:02;;;;;;;12.50;9.13;;;;;;;15.10;100.00;93573.50;5020158;28;20050;-79
2023/09/03 05:11:33;;;;;;;14.10;8.93;;;;;;;15.23;100.00;93575.81;5021914;28;20041;-79
2023/09/03 05:13:59;;;;;;;13.25;9.32;;;;;;;15.35;100.00;93577.59;5017724;28;20042;-80
2023/09/03 05:16:27;;;;;;;11.52;9.18;;;;;;;15.46;100.00;93578.56;5015854;28;20057;-80
2023/09/03 05:18:54;;;;;;;13.63;8.95;;;;;;;15.55;100.00;93587.53;5017789;28;20056;-80
2023/09/03 05:21:21;;;;;;;17.95;10.15;;;;;;;15.63;100.00;93578.59;5020488;28;20124;-81
2023/09/03 05:23:49;;;;;;;13.00;9.25;;;;;;;15.71;100.00;93578.25;5018955;28;20408;-80
2023/09/03 05:26:16;;;;;;;13.30;8.93;;;;;;;15.75;100.00;93566.38;5014675;28;20046;-80
2023/09/03 05:28:44;;;;;;;17.45;9.15;;;;;;;15.86;100.00;93580.31;5020955;28;20095;-80
2023/09/03 05:31:11;;;;;;;11.50;8.68;;;;;;;15.92;100.00;93583.75;5012760;28;20049;-80
2023/09/03 05:33:39;;;;;;;15.52;9.15;;;;;;;15.96;100.00;93574.53;5019219;28;20107;-80
2023/09/03 05:36:06;;;;;;;12.60;9.15;;;;;;;15.98;100.00;93580.25;5019359;28;20038;-80
2023/09/03 05:38:33;;;;;;;12.43;9.30;;;;;;;16.02;100.00;93578.00;5015668;28;20500;-81
2023/09/03 05:41:00;;;;;;;11.80;8.85;;;;;;;16.12;100.00;93582.56;5019513;28;20057;-80
2023/09/03 05:43:26;;;;;;;13.35;8.40;;;;;;;16.19;100.00;93572.81;5018503;28;20041;-80
2023/09/03 05:45:55;;;;;;;12.38;8.38;;;;;;;16.39;100.00;93579.34;5019704;28;20046;-79
2023/09/03 05:48:21;;;;;;;11.23;8.15;;;;;;;16.55;100.00;93583.75;5015440;28;20049;-79
2023/09/03 05:50:48;;;;;;;14.48;9.85;;;;;;;16.72;100.00;93593.31;5013000;28;20096;-79
2023/09/03 05:53:15;;;;;;;11.52;8.55;;;;;;;16.85;100.00;93594.75;5018538;28;20451;-80
2023/09/03 05:55:42;;;;;;;13.23;9.27;;;;;;;16.98;100.00;93601.44;5021057;28;20395;-81
2023/09/03 05:58:09;;;;;;;18.88;11.98;;;;;;;17.10;100.00;93609.16;5020233;28;20096;-80
2023/09/03 06:00:41;;;;;;;18.40;10.65;;;;;;;17.26;100.00;93601.56;5015915;28;20046;-79
2023/09/03 06:03:10;;;;;;;16.33;10.02;;;;;;;17.36;100.00;93597.25;5020395;28;20049;-78
2023/09/03 06:05:36;;;;;;;13.30;10.02;;;;;;;17.28;100.00;93579.53;5021016;28;20042;-78
2023/09/03 06:08:03;;;;;;;14.73;10.02;;;;;;;17.44;100.00;93603.03;5019292;28;20494;-78
2023/09/03 06:10:30;;;;;;;19.90;10.82;;;;;;;17.59;100.00;93603.22;5017630;28;20457;-78
2023/09/03 06:12:57;;;;;;;16.40;9.98;;;;;;;17.76;100.00;93592.75;5015823;28;20049;-79
2023/09/03 06:15:24;;;;;;;16.30;10.30;;;;;;;17.85;100.00;93598.28;5021314;28;20087;-79
2023/09/03 06:17:53;;;;;;;17.75;10.73;;;;;;;18.04;100.00;93608.34;5020091;28;20089;-79
2023/09/03 06:20:21;;;;;;;17.15;9.73;;;;;;;17.63;99.54;93517.78;5019136;28;20125;-79
2023/09/03 06:22:48;;;;;;;17.38;10.00;;;;;;;18.35;97.68;93595.63;5010874;28;20045;-79
2023/09/03 06:25:14;;;;;;;16.63;10.25;;;;;;;18.56;97.44;93603.56;5008531;28;20042;-79
2023/09/03 06:27:41;;;;;;;13.00;8.63;;;;;;;18.61;96.93;93602.84;5013815;28;20045;-78
2023/09/03 06:30:09;;;;;;;15.75;8.70;;;;;;;18.68;96.92;93606.78;5013586;28;20045;-80
2023/09/03 06:32:37;;;;;;;12.98;8.77;;;;;;;18.78;96.29;93607.88;5014570;28;20112;-80
2023/09/03 06:35:04;;;;;;;15.93;9.52;;;;;;;18.97;95.08;93605.63;5015262;28;20053;-79
2023/09/03 06:37:32;;;;;;;10.05;7.70;;;;;;;19.12;94.01;93599.75;5021091;28;20537;-80
2023/09/03 06:39:59;;;;;;;10.13;7.72;;;;;;;19.43;91.62;93606.91;5015371;28;20060;-79
2023/09/03 06:42:29;;;;;;;9.95;7.47;;;;;;;19.64;89.46;93610.38;5018553;28;20099;-79
2023/09/03 06:44:56;;;;;;;11.27;7.03;;;;;;;19.57;90.35;93612.44;5012931;28;20483;-78
2023/09/03 06:47:23;;;;;;;11.45;7.82;;;;;;;19.84;89.52;93616.69;5017826;28;20053;-78
2023/09/03 06:49:51;;;;;;;11.68;7.13;;;;;;;20.03;88.25;93602.16;5020176;28;20085;-76
2023/09/03 06:52:18;;;;;;;9.35;6.88;;;;;;;20.26;86.01;93617.56;5012416;28;20073;-76
2023/09/03 06:54:47;;;;;;;13.82;7.78;;;;;;;20.45;86.40;93614.44;5007173;28;20056;-76
2023/09/03 06:57:14;;;;;;;12.55;7.50;;;;;;;20.61;84.09;93612.59;5014678;28;20054;-76
2023/09/03 06:59:41;;;;;;;22.75;8.30;;;;;;;20.72;83.97;93582.81;5022114;28;20104;-76
2023/09/03 07:02:08;;;;;;;13.45;7.63;;;;;;;21.20;82.36;93605.97;5021284;28;20466;-76
2023/09/03 07:04:35;;;;;;;12.43;7.70;;;;;;;21.36;80.31;93614.56;5013901;28;20041;-77
2023/09/03 07:07:03;;;;;;;12.25;7.68;;;;;;;21.40;78.45;93591.28;5014514;28;20054;-76
2023/09/03 07:09:31;;;;;;;10.85;7.00;;;;;;;21.67;77.35;93605.81;5020435;28;20422;-77
2023/09/03 07:11:59;;;;;;;12.32;7.47;;;;;;;21.76;78.56;93588.50;5013717;28;20155;-76
2023/09/03 07:14:26;;;;;;;12.80;6.63;;;;;;;21.85;75.33;93603.66;5013580;28;20442;-76
2023/09/03 07:16:52;;;;;;;12.45;8.18;;;;;;;22.02;76.28;93604.06;5012606;28;20056;-77
2023/09/03 07:19:20;;;;;;;11.15;6.75;;;;;;;22.08;75.71;93604.78;5012116;28;20100;-76
2023/09/03 07:21:47;;;;;;;13.15;6.82;;;;;;;22.28;73.79;93597.88;5012543;28;20081;-77
2023/09/03 07:24:15;;;;;;;9.25;6.30;;;;;;;22.56;71.79;93611.28;5015864;28;20641;-77
2023/09/03 07:26:42;;;;;;;12.27;7.25;;;;;;;22.64;72.97;93589.72;5019018;28;20096;-77
2023/09/03 07:29:10;;;;;;;12.18;6.63;;;;;;;23.06;73.38;93610.28;5018262;28;20078;-76
2023/09/03 07:31:40;;;;;;;8.95;5.90;;;;;;;23.04;70.17;93597.47;5017598;28;20495;-77
2023/09/03 07:34:08;;;;;;;8.68;6.55;;;;;;;23.14;68.13;93609.66;5016036;28;20074;-77
2023/09/03 07:36:46;;;;;;;9.38;5.82;;;;;;;23.39;66.35;93618.34;5021454;28;20116;-77
2023/09/03 07:39:13;;;;;;;9.43;6.22;;;;;;;23.32;67.34;93602.16;5014937;28;20053;-79
2023/09/03 07:41:40;;;;;;;12.10;6.15;;;;;;;23.67;66.85;93608.06;5023385;28;20111;-77
2023/09/03 07:44:07;;;;;;;8.75;5.00;;;;;;;23.85;64.57;93626.72;5018782;28;20053;-77
2023/09/03 07:46:36;;;;;;;7.60;5.38;;;;;;;23.61;65.95;93623.06;5022588;28;20045;-77
2023/09/03 07:49:02;;;;;;;11.57;5.95;;;;;;;24.01;67.66;93619.41;5016829;28;20046;-76
2023/09/03 07:51:29;;;;;;;10.10;5.28;;;;;;;24.28;64.37;93618.78;5019030;28;20087;-76
2023/09/03 07:53:56;;;;;;;10.48;5.60;;;;;;;24.64;65.28;93621.91;5019029;28;20061;-76
2023/09/03 07:56:23;;;;;;;7.68;5.25;;;;;;;24.92;63.05;93622.00;5018097;28;20045;-76
2023/09/03 07:58:49;;;;;;;8.52;5.50;;;;;;;25.16;61.84;93623.66;5017629;28;20953;-78
2023/09/03 08:01:16;;;;;;;10.10;5.80;;;;;;;25.43;62.06;93628.16;5016464;28;20092;-77
2023/09/03 08:03:45;;;;;;;7.65;5.05;;;;;;;25.54;59.37;93612.97;5020313;28;20115;-76
2023/09/03 08:06:13;;;;;;;7.88;5.20;;;;;;;25.40;58.12;93634.00;5020543;28;20038;-77
2023/09/03 08:08:40;;;;;;;7.32;4.95;;;;;;;25.63;58.59;93626.22;5013687;28;20052;-77
2023/09/03 08:11:07;;;;;;;8.15;4.95;;;;;;;25.51;58.66;93633.78;5018348;28;20824;-77
2023/09/03 08:13:33;;;;;;;8.23;5.45;;;;;;;25.84;61.55;93625.78;5021081;28;20045;-77
2023/09/03 08:16:00;;;;;;;10.25;5.30;;;;;;;25.99;59.41;93624.69;5015446;28;20101;-77
2023/09/03 08:18:27;;;;;;;11.02;5.53;;;;;;;26.26;58.85;93625.69;5017954;28;20500;-77
2023/09/03 08:20:55;;;;;;;9.45;4.85;;;;;;;26.52;58.24;93612.69;5019405;28;20057;-78
2023/09/03 08:23:22;;;;;;;7.75;4.95;;;;;;;26.77;57.49;93607.13;5022666;28;20050;-77
2023/09/03 08:25:48;;;;;;;12.23;5.88;;;;;;;27.07;56.47;93621.41;5020437;28;20561;-77
2023/09/03 08:28:15;;;;;;;7.22;4.82;;;;;;;27.14;56.12;93602.50;5010210;28;20537;-77
2023/09/03 08:30:42;;;;;;;8.02;4.30;;;;;;;27.09;52.81;93618.47;5019810;28;20060;-77
2023/09/03 08:33:09;;;;;;;7.22;4.28;;;;;;;26.96;51.94;93609.56;5017339;28;20132;-77
2023/09/03 08:35:36;;;;;;;8.65;5.72;;;;;;;27.29;54.32;93616.34;5018778;28;20458;-76
2023/09/03 08:38:07;;;;;;;6.35;4.55;;;;;;;26.99;51.83;93592.34;5018609;28;20046;-76
2023/09/03 08:40:34;;;;;;;7.78;4.75;;;;;;;26.85;52.27;93587.16;5019142;28;20046;-77
2023/09/03 08:43:06;;;;;;;6.68;4.68;;;;;;;27.00;52.64;93596.53;5016276;28;20058;-77
2023/09/03 08:45:35;;;;;;;9.48;4.50;;;;;;;27.26;53.64;93593.22;5019441;28;20096;-77
2023/09/03 08:48:02;;;;;;;9.27;4.85;;;;;;;27.44;51.32;93580.88;5015031;28;20511;-77
2023/09/03 08:50:31;;;;;;;5.63;4.18;;;;;;;27.43;51.31;93569.53;5015355;28;20050;-77
2023/09/03 08:52:59;;;;;;;7.70;4.70;;;;;;;27.78;49.06;93597.88;5011400;28;20053;-77
2023/09/03 08:55:29;;;;;;;13.55;5.10;;;;;;;28.09;51.59;93572.41;5011342;28;20053;-77
2023/09/03 08:57:56;;;;;;;8.90;4.20;;;;;;;28.47;47.55;93581.56;5013061;28;20054;-76
2023/09/03 09:00:23;;;;;;;6.35;4.13;;;;;;;28.66;49.27;93570.63;5011587;28;20046;-77
2023/09/03 09:02:51;;;;;;;6.57;4.32;;;;;;;28.32;47.57;93501.69;5011207;28;20057;-77
2023/09/03 09:05:18;;;;;;;7.63;4.60;;;;;;;28.97;46.96;93563.56;5018129;28;20057;-77
2023/09/03 09:07:47;;;;;;;8.13;4.93;;;;;;;29.06;46.55;93565.06;5016075;28;20048;-78
2023/09/03 09:10:18;;;;;;;5.32;3.92;;;;;;;28.96;43.05;93567.31;5012312;28;20115;-78
2023/09/03 09:12:52;;;;;;;6.97;4.25;;;;;;;29.01;43.67;93572.41;5011205;28;20144;-78
2023/09/03 09:15:19;;;;;;;7.10;4.00;;;;;;;28.20;42.78;93578.94;5009711;28;20128;-78
2023/09/03 09:17:47;;;;;;;4.20;3.17;;;;;;;28.15;44.06;93571.94;5012867;28;20068;-79
2023/09/03 09:20:15;;;;;;;5.70;3.63;;;;;;;27.15;44.89;93542.63;5013630;28;20046;-78
2023/09/03 09:22:44;;;;;;;5.55;3.80;;;;;;;26.86;45.66;93565.78;5017797;28;20124;-78
2023/09/03 09:25:17;;;;;;;5.10;3.83;;;;;;;26.41;46.49;93529.75;5015001;28;20108;-78
2023/09/03 09:27:44;;;;;;;5.80;4.18;;;;;;;26.65;46.22;93558.38;5018360;28;20054;-78
2023/09/03 09:30:14;;;;;;;5.28;3.90;;;;;;;26.97;45.95;93558.38;5015114;28;20096;-78
2023/09/03 09:32:42;;;;;;;6.07;3.90;;;;;;;26.52;46.00;93554.00;5019140;28;20050;-77
2023/09/03 09:35:10;;;;;;;6.80;3.85;;;;;;;26.23;45.96;93555.97;5011367;28;20049;-76
2023/09/03 09:37:41;;;;;;;5.07;3.88;;;;;;;26.58;46.83;93544.88;5020973;28;20049;-78
2023/09/03 09:40:08;;;;;;;5.60;3.83;;;;;;;27.04;45.97;93544.78;5013339;28;20784;-77
2023/09/03 09:42:36;;;;;;;5.75;3.80;;;;;;;27.05;44.99;93543.69;5018510;28;20407;-76
2023/09/03 09:45:03;;;;;;;4.93;3.42;;;;;;;27.01;44.56;93540.09;5010165;28;20048;-77
2023/09/03 09:47:32;;;;;;;5.60;3.80;;;;;;;26.69;45.24;93540.09;5017611;28;20123;-77
2023/09/03 09:49:58;;;;;;;5.65;3.85;;;;;;;26.79;45.55;93534.56;5011716;28;20053;-77
2023/09/03 09:52:35;;;;;;;6.25;3.65;;;;;;;26.78;45.37;93537.50;5017787;28;20044;-77
2023/09/03 09:55:02;;;;;;;5.97;4.13;;;;;;;26.60;44.90;93532.16;5009050;28;20053;-77
2023/09/03 09:57:29;;;;;;;6.00;4.25;;;;;;;26.70;45.37;93522.47;5011550;28;20048;-77
2023/09/03 09:59:59;;;;;;;5.20;3.83;;;;;;;26.24;46.12;93514.66;5013156;28;20499;-77
2023/09/03 10:02:27;;;;;;;5.30;3.88;;;;;;;26.62;46.53;93518.69;5015201;28;20049;-77
2023/09/03 10:04:55;;;;;;;6.55;4.32;;;;;;;26.88;47.31;93510.88;5014935;28;20103;-78
2023/09/03 10:07:22;;;;;;;4.57;3.67;;;;;;;27.28;45.38;93496.91;5016482;28;20050;-78
2023/09/03 10:09:49;;;;;;;7.55;4.55;;;;;;;27.47;45.09;93509.81;5011883;28;20049;-79
2023/09/03 10:12:16;;;;;;;5.10;3.83;;;;;;;26.80;44.15;93485.28;5016537;28;20092;-77
2023/09/03 10:14:42;;;;;;;4.88;3.85;;;;;;;26.83;44.72;93497.09;5012220;28;20049;-78
2023/09/03 10:17:11;;;;;;;5.68;3.97;;;;;;;27.02;44.97;93471.25;5019254;28;20104;-77
2023/09/03 10:19:43;;;;;;;5.20;4.10;;;;;;;26.92;44.55;93474.97;5019082;28;20061;-78
2023/09/03 10:22:16;;;;;;;8.27;3.97;;;;;;;27.45;44.90;93485.59;5013609;28;20479;-79
2023/09/03 10:24:44;;;;;;;5.88;3.65;;;;;;;28.00;44.39;93486.06;5014389;28;20120;-79
2023/09/03 10:27:17;;;;;;;4.85;3.83;;;;;;;28.52;43.61;93478.34;5012616;28;20050;-78
2023/09/03 10:29:47;;;;;;;6.43;3.67;;;;;;;28.52;40.35;93496.84;5018141;28;20418;-78
2023/09/03 10:32:16;;;;;;;5.65;3.72;;;;;;;28.80;41.41;93494.53;5014309;28;20038;-78
2023/09/03 10:34:44;;;;;;;6.15;3.97;;;;;;;28.23;41.31;93482.47;5011443;28;20561;-78
2023/09/03 10:37:13;;;;;;;5.13;3.88;;;;;;;28.58;41.72;93482.34;5011444;28;20092;-78
2023/09/03 10:39:42;;;;;;;5.97;4.20;;;;;;;28.44;41.42;93472.00;5011248;28;21248;-77
2023/09/03 10:42:28;;;;;;;5.80;3.95;;;;;;;28.40;40.83;93463.16;5013291;28;20136;-78
2023/09/03 10:44:56;;;;;;;8.18;4.07;;;;;;;28.46;42.34;93469.03;5017033;28;20052;-78
2023/09/03 10:47:23;;;;;;;5.55;4.22;;;;;;;28.23;41.75;93475.31;5015093;28;20103;-78
2023/09/03 10:49:52;;;;;;;6.18;4.40;;;;;;;28.08;41.56;93467.84;5019089;28;20067;-77
2023/09/03 10:52:40;;;;;;;5.90;3.75;;;;;;;28.61;41.76;93462.44;5018110;28;20057;-78
2023/09/03 10:55:14;;;;;;;5.00;3.80;;;;;;;28.97;40.40;93461.19;5018314;28;20099;-78
2023/09/03 10:57:41;;;;;;;9.40;4.63;;;;;;;28.64;41.26;93457.31;5009603;28;20077;-77
2023/09/03 11:00:15;;;;;;;5.75;4.18;;;;;;;28.67;41.05;93446.09;5016915;28;20451;-78
2023/09/03 11:02:43;;;;;;;5.70;3.88;;;;;;;29.06;41.19;93451.34;5017376;28;20053;-78
2023/09/03 11:05:15;;;;;;;5.47;4.03;;;;;;;29.34;39.41;93452.72;5012648;28;20124;-79
2023/09/03 11:07:44;;;;;;;5.20;4.00;;;;;;;29.58;38.89;93452.09;5009757;28;20530;-78
2023/09/03 11:10:39;;;;;;;7.93;4.00;;;;;;;29.70;39.28;93442.66;5012180;28;20093;-79
2023/09/03 11:13:13;;;;;;;6.85;3.88;;;;;;;29.44;38.47;93447.03;5012266;28;20046;-78
2023/09/03 11:15:56;;;;;;;4.70;3.50;;;;;;;28.61;39.11;93443.97;5015904;28;20130;-78
2023/09/03 11:18:26;;;;;;;6.82;4.13;;;;;;;27.93;40.23;93438.25;5015109;28;20053;-78
2023/09/03 11:20:54;;;;;;;8.30;4.18;;;;;;;28.71;40.70;93425.09;5014574;28;20074;-78
2023/09/03 11:23:22;;;;;;;7.97;3.83;;;;;;;29.20;39.77;93418.56;5016187;28;20072;-78
2023/09/03 11:25:49;;;;;;;5.15;3.70;;;;;;;29.39;38.84;93420.78;5011466;28;20050;-79
2023/09/03 11:28:16;;;;;;;6.10;4.00;;;;;;;29.67;41.28;93412.31;5011698;28;20503;-79
2023/09/03 11:30:44;;;;;;;4.63;3.42;;;;;;;29.22;37.69;93419.06;5011732;28;20096;-78